Time;durP1;ratioP1;P1;durP2;ratioP2;P2;SDS_P1;SDS_P2;PMS_P1;PMS_P2;Temp;Humidity;BMP_temperature;BMP_pressure;BME280_temperature;BME280_humidity;BME280_pressure;Samples;Min_cycle;Max_cycle;Signal;HPM_P1;HPM_P2
2023/07/07 00:01:20;;;;;;;6.07;5.47;;;25.00;49.50;;;;;;4972692;28;20448;-77
2023/07/07 00:03:48;;;;;;;5.60;5.10;;;25.00;49.60;;;;;;4972391;28;20489;-77
2023/07/07 00:06:18;;;;;;;5.67;5.17;;;25.00;49.60;;;;;;4972344;28;20438;-76
2023/07/07 00:08:45;;;;;;;5.33;4.93;;;25.00;49.60;;;;;;4972447;28;20484;-77
2023/07/07 00:11:13;;;;;;;6.23;5.60;;;25.00;49.60;;;;;;4971719;28;20516;-76
2023/07/07 00:13:41;;;;;;;5.33;4.83;;;24.90;49.60;;;;;;4967985;28;20442;-76
2023/07/07 00:16:09;;;;;;;5.40;5.00;;;24.90;49.70;;;;;;4964543;28;20476;-76
2023/07/07 00:18:37;;;;;;;5.60;5.00;;;25.00;49.70;;;;;;4972102;28;20457;-77
2023/07/07 00:21:05;;;;;;;5.03;4.63;;;24.90;49.60;;;;;;4972258;28;20529;-76
2023/07/07 00:23:37;;;;;;;9.90;5.17;;;24.90;49.70;;;;;;4967455;28;20502;-76
2023/07/07 00:26:07;;;;;;;5.10;4.60;;;24.80;49.90;;;;;;4972145;28;20450;-76
2023/07/07 00:28:34;;;;;;;5.83;5.33;;;24.80;49.80;;;;;;4969878;28;20469;-76
2023/07/07 00:31:02;;;;;;;5.20;4.80;;;24.80;49.70;;;;;;4971246;28;20470;-76
2023/07/07 00:33:30;;;;;;;5.60;5.10;;;24.80;49.90;;;;;;4972558;28;20447;-75
2023/07/07 00:35:59;;;;;;;4.57;4.27;;;24.70;49.80;;;;;;4972004;28;20506;-76
2023/07/07 00:38:27;;;;;;;4.80;4.40;;;24.70;49.90;;;;;;4972192;28;20438;-77
2023/07/07 00:40:59;;;;;;;5.33;4.93;;;24.70;50.00;;;;;;4971945;28;20487;-77
2023/07/07 00:43:27;;;;;;;4.30;4.00;;;24.70;50.40;;;;;;4971925;28;20412;-76
2023/07/07 00:45:56;;;;;;;5.87;5.20;;;24.60;49.90;;;;;;4969763;28;20451;-77
2023/07/07 00:48:24;;;;;;;4.90;4.50;;;24.60;50.20;;;;;;4977670;28;20464;-76
2023/07/07 00:50:54;;;;;;;6.80;4.90;;;24.60;49.90;;;;;;4978097;28;20469;-76
2023/07/07 00:53:22;;;;;;;4.90;3.97;;;24.60;50.10;;;;;;4976376;28;20514;-76
2023/07/07 00:55:52;;;;;;;4.80;4.40;;;24.60;50.10;;;;;;4967852;28;21014;-76
2023/07/07 00:58:22;;;;;;;4.67;4.30;;;24.60;50.00;;;;;;4968763;28;20442;-76
2023/07/07 01:00:51;;;;;;;4.73;4.23;;;24.60;50.00;;;;;;4975837;28;20478;-76
2023/07/07 01:03:26;;;;;;;4.80;4.40;;;24.50;50.20;;;;;;4974299;28;20461;-76
2023/07/07 01:05:55;;;;;;;4.93;4.53;;;24.50;50.20;;;;;;4972717;28;20416;-75
2023/07/07 01:08:23;;;;;;;3.90;3.70;;;24.50;50.20;;;;;;4975774;28;20437;-75
2023/07/07 01:10:51;;;;;;;5.10;4.50;;;24.50;49.90;;;;;;4976003;28;20533;-76
2023/07/07 01:13:19;;;;;;;4.97;4.50;;;24.40;50.30;;;;;;4975757;28;20516;-77
2023/07/07 01:15:59;;;;;;;5.30;4.80;;;24.40;50.20;;;;;;4973409;28;20469;-76
2023/07/07 01:18:32;;;;;;;4.63;4.20;;;24.40;50.30;;;;;;4969900;28;20473;-76
2023/07/07 01:21:02;;;;;;;4.17;3.87;;;24.40;50.30;;;;;;4977379;28;20464;-76
2023/07/07 01:23:59;;;;;;;4.77;4.37;;;24.40;51.00;;;;;;4982366;28;20540;-76
2023/07/07 01:26:41;;;;;;;4.17;3.87;;;24.40;50.20;;;;;;4980154;28;20434;-76
2023/07/07 01:29:41;;;;;;;4.77;4.37;;;24.40;50.40;;;;;;4982360;28;20430;-77
2023/07/07 01:32:12;;;;;;;5.90;4.20;;;24.30;50.10;;;;;;5005378;23;20487;-82
2023/07/07 01:34:40;;;;;;;4.00;3.70;;;24.30;50.40;;;;;;4997759;28;20461;-81
2023/07/07 01:37:08;;;;;;;4.30;3.90;;;24.30;50.50;;;;;;4997681;28;20531;-81
2023/07/07 01:39:37;;;;;;;4.73;4.37;;;24.30;50.30;;;;;;4994371;28;20458;-81
2023/07/07 01:42:08;;;;;;;5.40;4.00;;;24.30;50.50;;;;;;4990586;28;20440;-81
2023/07/07 01:44:40;;;;;;;4.00;3.80;;;24.30;50.40;;;;;;4977829;28;20446;-81
2023/07/07 01:47:12;;;;;;;4.33;3.97;;;24.30;50.40;;;;;;4978041;28;20458;-81
2023/07/07 01:49:43;;;;;;;5.10;3.80;;;24.30;50.30;;;;;;4977675;28;20476;-80
2023/07/07 01:52:12;;;;;;;4.10;3.80;;;24.20;50.40;;;;;;4985544;28;20425;-81
2023/07/07 01:54:42;;;;;;;3.77;3.47;;;24.20;50.60;;;;;;4978057;28;20449;-81
2023/07/07 01:57:11;;;;;;;4.13;3.53;;;24.20;50.60;;;;;;4978103;28;20477;-82
2023/07/07 01:59:39;;;;;;;4.20;3.80;;;24.20;50.50;;;;;;4976280;28;20450;-82
2023/07/07 02:02:07;;;;;;;4.77;4.37;;;24.10;50.60;;;;;;4977686;28;20433;-82
2023/07/07 02:04:36;;;;;;;14.17;10.57;;;24.10;50.60;;;;;;4978100;28;20434;-82
2023/07/07 02:07:05;;;;;;;19.47;14.27;;;24.10;50.50;;;;;;4977271;28;20452;-82
2023/07/07 02:09:34;;;;;;;26.47;18.37;;;24.10;50.60;;;;;;4976982;28;20435;-81
2023/07/07 02:12:02;;;;;;;29.50;19.67;;;24.10;50.40;;;;;;4973337;28;20508;-81
2023/07/07 02:14:30;;;;;;;29.63;20.73;;;24.10;50.70;;;;;;4974081;28;20490;-81
2023/07/07 02:16:58;;;;;;;30.93;21.17;;;24.10;50.70;;;;;;4978875;28;20466;-81
2023/07/07 02:19:26;;;;;;;30.77;21.37;;;24.00;50.70;;;;;;4989818;28;20446;-82
2023/07/07 02:21:55;;;;;;;32.50;21.47;;;24.00;50.60;;;;;;4976091;28;20462;-81
2023/07/07 02:24:23;;;;;;;27.20;19.37;;;24.00;50.60;;;;;;4976998;28;20450;-81
2023/07/07 02:26:52;;;;;;;38.77;22.50;;;24.00;50.60;;;;;;4976430;28;20453;-80
2023/07/07 02:29:20;;;;;;;31.57;21.37;;;24.00;50.80;;;;;;4976355;28;20441;-80
2023/07/07 02:31:48;;;;;;;35.50;22.77;;;24.00;50.90;;;;;;4970049;28;20473;-81
2023/07/07 02:34:17;;;;;;;33.63;21.90;;;23.90;50.70;;;;;;4976149;28;20951;-81
2023/07/07 02:36:45;;;;;;;32.50;22.23;;;23.90;50.50;;;;;;4976031;28;20496;-81
2023/07/07 02:39:15;;;;;;;35.03;22.53;;;23.90;50.80;;;;;;4971263;28;20870;-81
2023/07/07 02:41:43;;;;;;;34.83;21.23;;;23.90;50.80;;;;;;4973648;28;20494;-81
2023/07/07 02:44:11;;;;;;;37.17;24.47;;;23.90;50.90;;;;;;4975692;28;20513;-81
2023/07/07 02:46:39;;;;;;;32.27;22.60;;;23.90;50.90;;;;;;4975363;28;20462;-81
2023/07/07 02:49:08;;;;;;;35.40;23.40;;;23.90;50.90;;;;;;4975916;28;20457;-81
2023/07/07 02:51:36;;;;;;;35.83;23.50;;;23.90;50.80;;;;;;4975704;28;20450;-81
2023/07/07 02:54:06;;;;;;;34.00;23.80;;;23.80;50.80;;;;;;4976332;28;20473;-81
2023/07/07 02:56:37;;;;;;;33.50;23.40;;;23.80;51.00;;;;;;4975688;28;20485;-81
2023/07/07 02:59:05;;;;;;;34.20;23.70;;;23.80;50.90;;;;;;4972862;28;20453;-81
2023/07/07 03:01:33;;;;;;;37.83;24.43;;;23.80;51.00;;;;;;4975846;28;20489;-81
2023/07/07 03:04:01;;;;;;;33.90;22.50;;;23.80;50.90;;;;;;4976134;28;20450;-81
2023/07/07 03:06:30;;;;;;;34.50;23.03;;;23.80;51.10;;;;;;4981845;28;20442;-81
2023/07/07 03:08:58;;;;;;;35.00;22.90;;;23.80;50.90;;;;;;4975587;28;20528;-81
2023/07/07 03:11:26;;;;;;;30.57;21.70;;;23.80;51.00;;;;;;4974979;28;20478;-81
2023/07/07 03:13:55;;;;;;;31.63;21.50;;;23.70;51.00;;;;;;4975967;28;20450;-81
2023/07/07 03:16:30;;;;;;;33.33;22.37;;;23.70;50.90;;;;;;4965306;28;21041;-81
2023/07/07 03:18:59;;;;;;;34.37;22.47;;;23.70;51.20;;;;;;4972951;28;20460;-81
2023/07/07 03:21:28;;;;;;;31.77;21.33;;;23.70;51.10;;;;;;4974946;28;20537;-81
2023/07/07 03:23:56;;;;;;;32.87;21.80;;;23.70;51.10;;;;;;4975012;28;20537;-81
2023/07/07 03:26:25;;;;;;;28.83;19.67;;;23.70;51.10;;;;;;4975603;28;20972;-80
2023/07/07 03:28:55;;;;;;;32.00;21.60;;;23.70;51.20;;;;;;4974843;28;20526;-81
2023/07/07 03:31:24;;;;;;;28.37;19.60;;;23.70;51.20;;;;;;4974895;28;20485;-81
2023/07/07 03:33:53;;;;;;;32.47;20.87;;;23.70;51.10;;;;;;4973964;28;20449;-81
2023/07/07 03:36:22;;;;;;;30.43;20.67;;;23.70;51.10;;;;;;4975084;28;20453;-81
2023/07/07 03:38:50;;;;;;;27.80;20.07;;;23.70;51.00;;;;;;4976555;28;20474;-81
2023/07/07 03:41:19;;;;;;;29.53;20.50;;;23.60;51.20;;;;;;4974917;28;20446;-81
2023/07/07 03:43:48;;;;;;;27.63;19.70;;;23.60;51.10;;;;;;4974560;28;20485;-81
2023/07/07 03:46:18;;;;;;;27.20;19.40;;;23.70;51.10;;;;;;4974587;28;21026;-80
2023/07/07 03:48:47;;;;;;;31.37;19.10;;;23.60;51.20;;;;;;4973147;28;20546;-82
2023/07/07 03:51:15;;;;;;;27.50;18.30;;;23.60;51.00;;;;;;4970856;28;20462;-81
2023/07/07 03:53:43;;;;;;;25.60;18.80;;;23.60;51.20;;;;;;4978277;28;20473;-80
2023/07/07 03:56:12;;;;;;;30.30;18.50;;;23.60;51.00;;;;;;4975014;28;20503;-80
2023/07/07 03:58:40;;;;;;;26.33;18.37;;;23.60;51.30;;;;;;4978952;28;20512;-80
2023/07/07 04:01:09;;;;;;;23.50;17.03;;;23.60;51.30;;;;;;4974554;28;20438;-80
2023/07/07 04:03:38;;;;;;;29.13;19.60;;;23.60;51.20;;;;;;4973394;28;20509;-81
2023/07/07 04:06:10;;;;;;;24.70;17.20;;;23.60;51.20;;;;;;4971189;28;20954;-80
2023/07/07 04:08:38;;;;;;;24.73;17.47;;;23.60;51.30;;;;;;4973704;28;20447;-81
2023/07/07 04:11:09;;;;;;;24.67;17.57;;;23.60;51.20;;;;;;4974097;28;20533;-80
2023/07/07 04:13:39;;;;;;;25.50;17.10;;;23.50;51.10;;;;;;4972891;28;20494;-80
2023/07/07 04:16:08;;;;;;;22.70;16.10;;;23.60;51.10;;;;;;4979953;28;20451;-81
2023/07/07 04:18:38;;;;;;;23.37;16.80;;;23.60;51.20;;;;;;4973126;28;20473;-80
2023/07/07 04:21:07;;;;;;;22.40;15.63;;;23.60;51.10;;;;;;4980441;28;20466;-80
2023/07/07 04:23:36;;;;;;;21.37;16.30;;;23.50;51.10;;;;;;4972297;28;20458;-81
2023/07/07 04:26:04;;;;;;;20.83;14.80;;;23.50;51.00;;;;;;4973454;28;20481;-82
2023/07/07 04:28:35;;;;;;;19.20;14.43;;;23.50;51.20;;;;;;4981717;28;20441;-78
2023/07/07 04:31:04;;;;;;;20.90;15.27;;;23.60;51.20;;;;;;4974424;28;20497;-80
2023/07/07 04:33:32;;;;;;;20.80;15.10;;;23.50;51.20;;;;;;4973835;28;20493;-79
2023/07/07 04:36:02;;;;;;;19.83;14.80;;;23.60;51.20;;;;;;4972988;28;21010;-80
2023/07/07 04:38:31;;;;;;;18.73;13.90;;;23.60;51.20;;;;;;4971410;28;20577;-80
2023/07/07 04:41:07;;;;;;;21.33;14.40;;;23.60;51.20;;;;;;4972882;28;20533;-78
2023/07/07 04:43:34;;;;;;;19.73;14.50;;;23.60;51.20;;;;;;4972971;28;20500;-78
2023/07/07 04:46:03;;;;;;;18.93;13.37;;;23.60;51.20;;;;;;4972588;28;20469;-80
2023/07/07 04:48:31;;;;;;;19.73;14.23;;;23.60;51.20;;;;;;4972512;28;20441;-81
2023/07/07 04:51:01;;;;;;;19.90;14.70;;;23.60;51.10;;;;;;4972550;28;20449;-79
2023/07/07 04:53:30;;;;;;;18.67;13.57;;;23.60;51.20;;;;;;4967557;28;20581;-80
2023/07/07 04:56:02;;;;;;;19.73;13.63;;;23.60;51.10;;;;;;4968715;28;20472;-80
2023/07/07 04:58:30;;;;;;;17.80;12.83;;;23.60;51.00;;;;;;4971978;28;20516;-80
2023/07/07 05:01:06;;;;;;;17.73;13.13;;;23.60;51.00;;;;;;4972307;28;20459;-80
2023/07/07 05:03:34;;;;;;;17.10;12.97;;;23.60;50.90;;;;;;4972430;28;20469;-80
2023/07/07 05:06:04;;;;;;;17.93;12.93;;;23.60;51.40;;;;;;4972063;28;20455;-80
2023/07/07 05:08:33;;;;;;;17.50;12.33;;;23.60;51.10;;;;;;4972357;28;20446;-81
2023/07/07 05:11:01;;;;;;;17.67;12.93;;;23.60;51.10;;;;;;4972467;28;20454;-80
2023/07/07 05:13:29;;;;;;;17.10;13.10;;;23.60;51.10;;;;;;4974323;28;20511;-80
2023/07/07 05:16:01;;;;;;;16.90;12.60;;;23.60;50.90;;;;;;4974751;28;20446;-80
2023/07/07 05:18:29;;;;;;;17.07;12.23;;;23.60;50.90;;;;;;4971060;28;20490;-80
2023/07/07 05:20:57;;;;;;;15.90;12.40;;;23.60;50.80;;;;;;4971475;28;20446;-80
2023/07/07 05:23:29;;;;;;;16.43;11.60;;;23.70;51.10;;;;;;4972517;28;20494;-80
2023/07/07 05:25:57;;;;;;;16.97;12.10;;;23.60;50.90;;;;;;4972465;28;20450;-80
2023/07/07 05:28:26;;;;;;;13.90;10.93;;;23.70;50.90;;;;;;4978814;28;20447;-81
2023/07/07 05:30:54;;;;;;;15.73;11.33;;;23.70;51.00;;;;;;4970868;28;21042;-81
2023/07/07 05:33:22;;;;;;;14.53;10.73;;;23.70;50.80;;;;;;4972526;28;20564;-80
2023/07/07 05:35:51;;;;;;;16.10;11.60;;;23.70;50.70;;;;;;4974412;28;21046;-80
2023/07/07 05:38:20;;;;;;;14.50;11.10;;;23.80;51.00;;;;;;4974915;28;20470;-80
2023/07/07 05:40:50;;;;;;;15.10;10.70;;;23.80;50.90;;;;;;4975311;28;20446;-80
2023/07/07 05:43:20;;;;;;;14.53;11.40;;;23.80;50.60;;;;;;4967723;28;20519;-80
2023/07/07 05:45:48;;;;;;;13.13;10.40;;;23.80;50.50;;;;;;4972135;28;20458;-80
2023/07/07 05:48:16;;;;;;;14.27;10.77;;;23.80;50.70;;;;;;4974995;28;20454;-80
2023/07/07 05:50:45;;;;;;;12.90;10.13;;;23.80;50.90;;;;;;4983274;28;20505;-79
2023/07/07 05:53:13;;;;;;;11.43;9.47;;;23.90;51.20;;;;;;4969779;28;20470;-80
2023/07/07 05:55:46;;;;;;;14.67;10.33;;;23.90;50.70;;;;;;4974803;28;20478;-80
2023/07/07 05:58:16;;;;;;;12.53;10.30;;;23.90;50.40;;;;;;4975168;28;20473;-80
2023/07/07 06:00:44;;;;;;;12.93;10.10;;;23.90;50.20;;;;;;4974391;28;20454;-80
2023/07/07 06:03:12;;;;;;;12.33;9.97;;;23.90;50.40;;;;;;4974449;28;20454;-80
2023/07/07 06:05:40;;;;;;;12.83;10.17;;;23.90;51.00;;;;;;4975262;28;20477;-80
2023/07/07 06:08:08;;;;;;;13.43;10.10;;;24.00;50.50;;;;;;4974405;28;20470;-79
2023/07/07 06:10:37;;;;;;;10.20;8.73;;;24.10;50.50;;;;;;4975114;28;20485;-80
2023/07/07 06:13:05;;;;;;;12.50;9.40;;;24.10;50.20;;;;;;4975277;28;20528;-80
2023/07/07 06:15:34;;;;;;;11.07;8.97;;;24.10;50.20;;;;;;4974975;28;20537;-79
2023/07/07 06:18:03;;;;;;;12.03;9.27;;;24.10;50.20;;;;;;4975324;28;20473;-81
2023/07/07 06:20:31;;;;;;;12.20;9.63;;;24.10;50.30;;;;;;4978430;28;20454;-79
2023/07/07 06:22:59;;;;;;;10.60;8.90;;;24.10;50.10;;;;;;4975006;28;20525;-80
2023/07/07 06:25:27;;;;;;;11.50;8.70;;;24.20;50.20;;;;;;4972214;28;20537;-80
2023/07/07 06:27:55;;;;;;;11.67;8.37;;;24.30;50.10;;;;;;4970754;28;20517;-80
2023/07/07 06:30:23;;;;;;;11.77;8.60;;;24.30;50.10;;;;;;4976002;28;20481;-81
2023/07/07 06:32:53;;;;;;;10.17;8.43;;;24.30;50.20;;;;;;4978221;28;20482;-81
2023/07/07 06:35:21;;;;;;;9.90;7.70;;;24.30;49.90;;;;;;4971847;28;20461;-81
2023/07/07 06:37:49;;;;;;;13.10;8.60;;;24.40;50.10;;;;;;4981150;28;20485;-81
2023/07/07 06:40:18;;;;;;;13.90;8.13;;;24.50;50.00;;;;;;4975225;28;20578;-81
2023/07/07 06:42:46;;;;;;;8.63;7.73;;;24.50;49.90;;;;;;4984104;28;20484;-81
2023/07/07 06:45:14;;;;;;;8.07;7.27;;;24.50;49.80;;;;;;4976853;28;20481;-81
2023/07/07 06:47:42;;;;;;;10.50;8.00;;;24.60;49.80;;;;;;4974682;28;20447;-81
2023/07/07 06:50:14;;;;;;;9.13;7.70;;;24.60;49.60;;;;;;4973158;28;20797;-81
2023/07/07 06:52:42;;;;;;;8.30;7.03;;;24.70;49.40;;;;;;4973676;28;20449;-81
2023/07/07 06:55:11;;;;;;;9.10;7.37;;;24.80;49.60;;;;;;4973424;28;20538;-81
2023/07/07 06:57:39;;;;;;;7.60;6.83;;;24.80;49.40;;;;;;4970647;28;20537;-81
2023/07/07 07:00:08;;;;;;;9.07;7.27;;;24.90;49.30;;;;;;4972651;28;20480;-80
2023/07/07 07:02:36;;;;;;;10.10;7.00;;;24.90;49.30;;;;;;4972615;28;20473;-81
2023/07/07 07:05:06;;;;;;;8.40;7.33;;;25.00;49.40;;;;;;4973532;28;20535;-81
2023/07/07 07:07:35;;;;;;;7.80;6.97;;;25.00;49.10;;;;;;4973427;28;20493;-81
2023/07/07 07:10:04;;;;;;;9.53;6.90;;;25.10;49.20;;;;;;4973201;28;20969;-80
2023/07/07 07:12:32;;;;;;;8.90;7.40;;;25.20;49.90;;;;;;4974754;28;20474;-80
2023/07/07 07:15:00;;;;;;;7.70;6.60;;;25.20;49.10;;;;;;4970487;28;20478;-81
2023/07/07 07:17:28;;;;;;;9.70;7.57;;;25.30;49.10;;;;;;4972933;28;20438;-80
2023/07/07 07:19:56;;;;;;;7.40;6.67;;;25.40;49.10;;;;;;4973244;28;20474;-81
2023/07/07 07:22:24;;;;;;;7.50;6.70;;;25.40;49.00;;;;;;4973240;28;20477;-80
2023/07/07 07:24:54;;;;;;;7.07;6.40;;;25.50;49.10;;;;;;4973215;28;20484;-80
2023/07/07 07:27:22;;;;;;;8.07;6.10;;;25.60;49.00;;;;;;4973182;28;20896;-80
2023/07/07 07:29:51;;;;;;;8.20;6.53;;;25.70;49.10;;;;;;4972540;28;20451;-80
2023/07/07 07:32:19;;;;;;;6.47;5.87;;;25.70;48.90;;;;;;4996415;23;20468;-76
2023/07/07 07:34:47;;;;;;;6.80;6.10;;;25.80;48.90;;;;;;4990856;28;20412;-76
2023/07/07 07:37:15;;;;;;;9.10;6.50;;;25.90;48.90;;;;;;4989836;28;20441;-76
2023/07/07 07:39:43;;;;;;;8.50;5.93;;;26.00;48.80;;;;;;4989256;28;20473;-76
2023/07/07 07:42:12;;;;;;;6.20;5.60;;;26.10;48.80;;;;;;4988000;28;20491;-76
2023/07/07 07:44:40;;;;;;;7.93;6.40;;;26.20;48.80;;;;;;4972041;28;20480;-76
2023/07/07 07:47:08;;;;;;;6.13;5.53;;;26.30;48.80;;;;;;4972238;28;20505;-76
2023/07/07 07:49:36;;;;;;;8.23;5.70;;;26.40;48.70;;;;;;4969551;28;20450;-76
2023/07/07 07:52:05;;;;;;;6.40;5.70;;;26.50;48.80;;;;;;4969758;28;20480;-76
2023/07/07 07:54:34;;;;;;;6.60;6.00;;;26.60;48.60;;;;;;4972455;28;20456;-77
2023/07/07 07:57:02;;;;;;;7.23;5.90;;;26.70;48.50;;;;;;4972496;28;20442;-76
2023/07/07 07:59:32;;;;;;;6.23;5.70;;;26.80;48.40;;;;;;4964502;28;20557;-77
2023/07/07 08:02:00;;;;;;;6.70;5.77;;;27.00;48.40;;;;;;4972293;28;20471;-76
2023/07/07 08:04:28;;;;;;;5.77;5.17;;;27.10;48.30;;;;;;4967046;28;20500;-76
2023/07/07 08:06:55;;;;;;;5.47;5.07;;;27.20;48.20;;;;;;4971844;28;20496;-76
2023/07/07 08:09:23;;;;;;;5.47;4.97;;;27.30;48.00;;;;;;4972296;28;20438;-76
2023/07/07 08:11:57;;;;;;;6.87;5.60;;;27.50;48.00;;;;;;4971397;28;20495;-76
2023/07/07 08:14:30;;;;;;;5.70;5.20;;;27.60;47.70;;;;;;4972128;28;20463;-76
2023/07/07 08:17:02;;;;;;;5.83;5.13;;;27.70;47.70;;;;;;4971442;28;20413;-76
2023/07/07 08:19:31;;;;;;;5.83;5.33;;;27.90;47.60;;;;;;4971821;28;20533;-76
2023/07/07 08:21:59;;;;;;;5.70;5.10;;;28.00;47.60;;;;;;4969340;28;20433;-76
2023/07/07 08:24:27;;;;;;;5.47;5.00;;;28.20;47.50;;;;;;4972248;28;20520;-76
2023/07/07 08:26:56;;;;;;;5.40;4.90;;;28.30;47.40;;;;;;4971880;28;20488;-76
2023/07/07 08:29:24;;;;;;;5.73;4.77;;;28.40;47.20;;;;;;4971544;28;20857;-76
2023/07/07 08:31:52;;;;;;;5.03;4.53;;;28.60;47.30;;;;;;4972268;28;20431;-76
2023/07/07 08:34:21;;;;;;;5.03;4.60;;;28.70;47.00;;;;;;4972014;28;20508;-76
2023/07/07 08:36:49;;;;;;;4.77;4.37;;;28.90;47.00;;;;;;4970865;28;20459;-76
2023/07/07 08:39:18;;;;;;;4.80;4.40;;;29.00;46.80;;;;;;4966465;28;20937;-77
2023/07/07 08:41:51;;;;;;;4.80;4.40;;;29.20;46.70;;;;;;4971816;28;20408;-76
2023/07/07 08:44:21;;;;;;;5.00;4.60;;;29.30;46.60;;;;;;4971710;28;20420;-77
2023/07/07 08:47:11;;;;;;;5.10;4.60;;;29.50;46.50;;;;;;4971280;28;20528;-76
2023/07/07 08:49:45;;;;;;;5.17;4.70;;;29.60;46.40;;;;;;4963684;28;20450;-77
2023/07/07 08:52:18;;;;;;;4.77;4.37;;;29.80;46.20;;;;;;4971556;28;20941;-76
2023/07/07 08:54:49;;;;;;;4.53;4.20;;;30.00;46.10;;;;;;4969269;28;20553;-77
2023/07/07 08:57:18;;;;;;;4.90;4.47;;;30.10;46.00;;;;;;4970784;28;20492;-76
2023/07/07 08:59:52;;;;;;;4.60;4.30;;;30.30;46.00;;;;;;4971830;28;20416;-77
2023/07/07 09:02:34;;;;;;;4.93;4.50;;;30.40;45.80;;;;;;4971979;28;20531;-76
2023/07/07 09:05:07;;;;;;;4.70;4.30;;;30.60;45.70;;;;;;4967744;28;20722;-77
2023/07/07 09:07:57;;;;;;;4.00;3.80;;;30.80;45.60;;;;;;4965697;28;20424;-77
2023/07/07 09:10:37;;;;;;;4.27;3.97;;;30.90;45.50;;;;;;4964050;28;20523;-76
2023/07/07 09:13:08;;;;;;;4.67;4.17;;;31.00;45.20;;;;;;4969460;28;20473;-76
2023/07/07 09:15:39;;;;;;;4.30;3.80;;;31.20;45.00;;;;;;4966926;28;20421;-77
2023/07/07 09:18:08;;;;;;;4.30;4.00;;;31.40;45.00;;;;;;4975538;28;20463;-77
2023/07/07 09:20:38;;;;;;;4.30;3.90;;;31.50;44.70;;;;;;4960318;28;20477;-76
2023/07/07 09:23:07;;;;;;;5.60;4.23;;;31.70;44.70;;;;;;4970958;28;20528;-76
2023/07/07 09:25:37;;;;;;;3.60;3.40;;;31.90;44.70;;;;;;4967781;28;20496;-75
2023/07/07 09:28:16;;;;;;;4.30;4.00;;;32.00;44.50;;;;;;4970628;28;20463;-77
2023/07/07 09:30:46;;;;;;;3.80;3.60;;;32.20;44.40;;;;;;4978800;28;20420;-76
2023/07/07 09:33:16;;;;;;;4.20;3.37;;;32.40;44.30;;;;;;4974846;28;20568;-76
2023/07/07 09:35:49;;;;;;;4.07;3.80;;;32.50;44.10;;;;;;4976667;28;20450;-76
2023/07/07 09:38:20;;;;;;;3.63;3.50;;;32.70;44.00;;;;;;4970620;28;20462;-76
2023/07/07 09:40:51;;;;;;;3.60;3.40;;;32.90;43.90;;;;;;4974987;28;20532;-76
2023/07/07 09:43:24;;;;;;;3.70;3.50;;;33.00;44.40;;;;;;4972079;28;20475;-76
2023/07/07 09:46:01;;;;;;;6.50;3.50;;;33.20;43.70;;;;;;4971654;28;20481;-77
2023/07/07 09:48:35;;;;;;;3.43;3.23;;;33.40;43.60;;;;;;4970915;28;20439;-77
2023/07/07 09:51:08;;;;;;;3.97;3.67;;;33.50;43.40;;;;;;4968709;28;20447;-77
2023/07/07 09:53:37;;;;;;;4.03;3.73;;;33.70;43.20;;;;;;4967023;28;20490;-76
2023/07/07 09:56:16;;;;;;;3.60;3.40;;;33.90;43.00;;;;;;4972064;28;20544;-76
2023/07/07 09:58:47;;;;;;;3.40;3.10;;;34.00;42.80;;;;;;4974775;28;20469;-77
2023/07/07 10:01:15;;;;;;;3.47;3.27;;;34.20;42.70;;;;;;4967489;28;20475;-77
2023/07/07 10:03:44;;;;;;;3.10;3.00;;;34.40;42.60;;;;;;4968534;28;20501;-77
2023/07/07 10:06:20;;;;;;;3.17;3.00;;;34.50;42.40;;;;;;4976237;28;20450;-77
2023/07/07 10:08:48;;;;;;;3.00;2.80;;;34.70;42.40;;;;;;4973948;28;20481;-78
2023/07/07 10:11:20;;;;;;;3.00;2.80;;;34.80;42.20;;;;;;4969825;28;20517;-77
2023/07/07 10:13:52;;;;;;;3.10;3.00;;;35.00;42.00;;;;;;4972822;28;20481;-77
2023/07/07 10:16:29;;;;;;;3.07;2.97;;;35.20;41.90;;;;;;4965813;28;20554;-77
2023/07/07 10:18:58;;;;;;;3.17;3.00;;;35.30;41.70;;;;;;4974238;28;20442;-77
2023/07/07 10:21:27;;;;;;;2.83;2.73;;;35.50;41.50;;;;;;4970689;28;20553;-77
2023/07/07 10:23:55;;;;;;;2.90;2.80;;;35.70;41.40;;;;;;4972620;28;20502;-78
2023/07/07 10:26:23;;;;;;;2.70;2.60;;;35.90;41.20;;;;;;4967107;28;21036;-78
2023/07/07 10:28:53;;;;;;;2.90;2.80;;;36.00;41.10;;;;;;4965795;28;20477;-77
2023/07/07 10:31:21;;;;;;;2.80;2.70;;;36.20;41.00;;;;;;4971953;28;20454;-77
2023/07/07 10:33:48;;;;;;;2.87;2.77;;;36.40;40.80;;;;;;4973522;28;21052;-77
2023/07/07 10:36:22;;;;;;;3.10;2.90;;;36.50;40.60;;;;;;4980733;28;20532;-78
2023/07/07 10:38:53;;;;;;;2.40;2.30;;;36.70;40.50;;;;;;4967963;28;20513;-78
2023/07/07 10:41:24;;;;;;;2.90;2.80;;;36.90;40.30;;;;;;4964207;28;20541;-77
2023/07/07 10:43:51;;;;;;;2.50;2.40;;;37.10;40.10;;;;;;4979726;28;20516;-77
2023/07/07 10:46:19;;;;;;;2.50;2.40;;;37.30;40.00;;;;;;4969936;28;20484;-77
2023/07/07 10:48:47;;;;;;;3.03;2.83;;;37.40;39.80;;;;;;4966848;28;20469;-76
2023/07/07 10:51:20;;;;;;;2.70;2.60;;;37.60;39.60;;;;;;4973100;28;20502;-77
2023/07/07 10:53:54;;;;;;;2.50;2.40;;;37.70;39.30;;;;;;4973327;28;20465;-77
2023/07/07 10:56:28;;;;;;;2.90;2.70;;;37.90;39.20;;;;;;4970352;28;20974;-78
2023/07/07 10:59:26;;;;;;;2.80;2.70;;;38.00;38.80;;;;;;4973348;28;20862;-78
2023/07/07 11:02:00;;;;;;;2.87;2.70;;;38.20;38.60;;;;;;4959409;28;21039;-78
2023/07/07 11:04:45;;;;;;;2.30;2.10;;;38.50;38.30;;;;;;4971818;28;20454;-78
2023/07/07 11:07:19;;;;;;;2.60;2.47;;;38.60;38.10;;;;;;4973211;28;20464;-78
2023/07/07 11:09:58;;;;;;;2.40;2.30;;;38.80;37.90;;;;;;4968402;28;20501;-78
2023/07/07 11:12:30;;;;;;;2.37;2.27;;;39.00;37.60;;;;;;4972530;28;20500;-79
2023/07/07 11:15:05;;;;;;;2.70;2.60;;;39.20;37.40;;;;;;4972819;28;21017;-78
2023/07/07 11:17:39;;;;;;;2.53;2.33;;;39.40;37.20;;;;;;4974529;28;21174;-78
2023/07/07 11:20:26;;;;;;;2.47;2.37;;;39.50;37.00;;;;;;4968972;28;20433;-78
2023/07/07 11:23:06;;;;;;;2.30;2.20;;;39.70;36.90;;;;;;4957927;28;20527;-78
2023/07/07 11:25:41;;;;;;;2.10;2.10;;;40.40;36.50;;;;;;4972792;28;20438;-78
2023/07/07 11:28:13;;;;;;;2.03;2.03;;;41.30;35.20;;;;;;4976871;28;20443;-78
2023/07/07 11:30:46;;;;;;;2.23;2.13;;;42.00;34.60;;;;;;4968406;28;20461;-78
2023/07/07 11:33:22;;;;;;;1.97;1.97;;;42.60;33.60;;;;;;4972818;28;20469;-78
2023/07/07 11:35:55;;;;;;;1.80;1.80;;;43.10;33.00;;;;;;4972407;28;20485;-78
2023/07/07 11:38:36;;;;;;;1.80;1.80;;;43.60;32.00;;;;;;4970977;28;21149;-79
2023/07/07 11:41:13;;;;;;;1.50;1.50;;;44.20;31.60;;;;;;4973310;28;20448;-79
2023/07/07 11:43:52;;;;;;;1.80;1.70;;;44.70;31.00;;;;;;4964251;28;20453;-78
2023/07/07 11:46:39;;;;;;;1.83;1.83;;;45.30;30.20;;;;;;4973816;28;20472;-79
2023/07/07 11:49:29;;;;;;;2.10;2.07;;;45.60;29.90;;;;;;4966281;28;20455;-79
2023/07/07 11:52:02;;;;;;;1.60;1.50;;;45.90;29.50;;;;;;4973240;28;20467;-79
2023/07/07 11:54:47;;;;;;;1.67;1.67;;;46.30;29.20;;;;;;4972317;28;20449;-78
2023/07/07 11:57:36;;;;;;;1.60;1.60;;;46.40;29.10;;;;;;4965813;28;20521;-78
2023/07/07 12:00:21;;;;;;;1.70;1.60;;;46.50;29.10;;;;;;4967310;28;20437;-78
2023/07/07 12:02:51;;;;;;;1.70;1.60;;;46.60;28.90;;;;;;4962727;28;20568;-78
2023/07/07 12:05:25;;;;;;;1.60;1.60;;;46.60;28.60;;;;;;4966112;28;20469;-76
2023/07/07 12:07:55;;;;;;;1.90;1.80;;;46.40;29.00;;;;;;4972357;28;20545;-77
2023/07/07 12:10:23;;;;;;;1.67;1.57;;;46.30;29.20;;;;;;4971744;28;20535;-78
2023/07/07 12:12:56;;;;;;;1.63;1.60;;;46.20;29.20;;;;;;4970988;28;20548;-78
2023/07/07 12:15:26;;;;;;;1.50;1.50;;;46.10;29.50;;;;;;4972527;28;20520;-77
2023/07/07 12:17:57;;;;;;;1.63;1.63;;;46.00;29.50;;;;;;4972465;28;20446;-77
2023/07/07 12:20:26;;;;;;;1.77;1.77;;;45.60;29.80;;;;;;4971969;28;20446;-77
2023/07/07 12:22:54;;;;;;;1.57;1.57;;;45.50;29.90;;;;;;4968537;28;20493;-77
2023/07/07 12:25:24;;;;;;;1.70;1.70;;;45.50;29.90;;;;;;4971770;28;20541;-78
2023/07/07 12:27:54;;;;;;;1.60;1.60;;;45.30;30.00;;;;;;4976940;28;20445;-78
2023/07/07 12:30:22;;;;;;;1.77;1.77;;;45.10;30.00;;;;;;4980467;28;20528;-77
2023/07/07 12:32:50;;;;;;;1.60;1.60;;;44.90;30.10;;;;;;4971963;28;20549;-78
2023/07/07 12:35:19;;;;;;;1.53;1.53;;;44.90;30.10;;;;;;4970135;28;20461;-77
2023/07/07 12:37:47;;;;;;;1.83;1.83;;;44.90;30.20;;;;;;4970928;28;20442;-77
2023/07/07 12:40:17;;;;;;;1.80;1.80;;;44.80;30.30;;;;;;4969368;28;21043;-77
2023/07/07 12:42:45;;;;;;;1.73;1.63;;;44.70;30.40;;;;;;4965862;28;20540;-78
2023/07/07 12:45:26;;;;;;;1.43;1.43;;;44.70;30.50;;;;;;4972960;28;20532;-77
2023/07/07 12:47:57;;;;;;;1.80;1.70;;;44.50;30.60;;;;;;4973005;28;20470;-77
2023/07/07 12:50:26;;;;;;;2.00;2.00;;;44.40;30.70;;;;;;4973393;28;20449;-77
2023/07/07 12:52:58;;;;;;;2.00;1.90;;;44.20;30.80;;;;;;4968371;28;20465;-76
2023/07/07 12:55:28;;;;;;;1.60;1.60;;;43.90;31.20;;;;;;4975858;28;20989;-77
2023/07/07 12:58:31;;;;;;;1.93;1.83;;;43.70;31.40;;;;;;4974632;28;20485;-75